createdAt,value
2023-02-11T00:00:14.608Z,1.95
2023-02-11T00:30:35.780Z,2.1
2023-02-11T01:00:54.935Z,2.4
2023-02-11T01:31:12.934Z,2.35
2023-02-11T02:01:33.005Z,2.35
2023-02-11T02:31:52.752Z,2.35
2023-02-11T03:02:18.849Z,2.25
2023-02-11T03:32:43.390Z,2.25
2023-02-11T04:03:00.802Z,2.05
2023-02-11T04:33:17.071Z,2.15
2023-02-11T05:03:38.798Z,2.2
2023-02-11T05:33:57.619Z,1.8
2023-02-11T06:04:16.335Z,1.95
2023-02-11T06:34:33.785Z,1.85
2023-02-11T07:04:53.819Z,1.85
2023-02-11T07:35:11.755Z,2.35
2023-02-11T08:36:39.785Z,3.6
2023-02-11T09:07:05.640Z,6.7
2023-02-11T09:37:27.952Z,7.25
2023-02-11T10:07:51.127Z,7.25
2023-02-11T10:38:25.376Z,7.25
2023-02-11T11:08:59.544Z,7.5
2023-02-11T11:39:20.823Z,8.4
2023-02-11T12:09:46.158Z,8.3
2023-02-11T12:40:10.707Z,8.15
2023-02-11T13:10:27.796Z,8.05
2023-02-11T13:40:48.492Z,8.15
2023-02-11T14:41:29.390Z,8.15
2023-02-11T15:11:55.569Z,8.05
2023-02-11T15:42:15.614Z,7.9
2023-02-11T16:42:59.808Z,8.3
2023-02-11T17:13:17.717Z,7.4
2023-02-11T17:43:41.951Z,7.15
2023-02-11T18:44:25.462Z,6.85
2023-02-11T19:45:28.770Z,6.75
2023-02-11T20:15:46.973Z,6.65
2023-02-11T20:46:10.886Z,6.7
2023-02-11T21:46:55.147Z,6.2
2023-02-11T22:17:15.120Z,5.9
2023-02-11T23:18:14.666Z,6.05
2023-02-11T23:48:53.078Z,6.2
